sensor_id;sensor_type;location;lat;lon;timestamp;pressure;altitude;pressure_sealevel;temperature;humidity
22649;BME280;11491;41.942;24.220;2023-05-12T00:00:54;90150.47;;;6.01;100.00
22649;BME280;11491;41.942;24.220;2023-05-12T00:03:21;90154.69;;;6.11;100.00
22649;BME280;11491;41.942;24.220;2023-05-12T00:05:49;90153.00;;;6.15;100.00
22649;BME280;11491;41.942;24.220;2023-05-12T00:08:16;90157.22;;;6.16;100.00
22649;BME280;11491;41.942;24.220;2023-05-12T00:10:43;90152.84;;;6.20;100.00
22649;BME280;11491;41.942;24.220;2023-05-12T00:13:10;90143.50;;;6.14;100.00
22649;BME280;11491;41.942;24.220;2023-05-12T00:15:37;90148.00;;;6.13;100.00
22649;BME280;11491;41.942;24.220;2023-05-12T00:18:04;90151.44;;;6.22;100.00
22649;BME280;11491;41.942;24.220;2023-05-12T00:20:30;90154.84;;;5.97;100.00
22649;BME280;11491;41.942;24.220;2023-05-12T00:22:58;90152.81;;;5.94;100.00
22649;BME280;11491;41.942;24.220;2023-05-12T00:25:25;90146.88;;;5.97;100.00
22649;BME280;11491;41.942;24.220;2023-05-12T00:27:52;90144.31;;;5.74;100.00
22649;BME280;11491;41.942;24.220;2023-05-12T00:30:19;90151.31;;;5.70;100.00
22649;BME280;11491;41.942;24.220;2023-05-12T00:32:46;90147.81;;;5.61;100.00
22649;BME280;11491;41.942;24.220;2023-05-12T00:35:13;90148.88;;;5.51;100.00
22649;BME280;11491;41.942;24.220;2023-05-12T00:37:40;90155.91;;;5.47;100.00
22649;BME280;11491;41.942;24.220;2023-05-12T00:40:09;90151.72;;;5.55;100.00
22649;BME280;11491;41.942;24.220;2023-05-12T00:42:36;90155.50;;;5.63;100.00
22649;BME280;11491;41.942;24.220;2023-05-12T00:45:06;90160.31;;;5.52;100.00
22649;BME280;11491;41.942;24.220;2023-05-12T00:47:33;90161.84;;;5.53;100.00
22649;BME280;11491;41.942;24.220;2023-05-12T00:50:01;90160.47;;;5.55;100.00
22649;BME280;11491;41.942;24.220;2023-05-12T00:52:28;90156.41;;;5.58;100.00
22649;BME280;11491;41.942;24.220;2023-05-12T00:54:56;90153.13;;;5.61;100.00
22649;BME280;11491;41.942;24.220;2023-05-12T00:57:24;90155.00;;;5.52;100.00
22649;BME280;11491;41.942;24.220;2023-05-12T00:59:52;90167.16;;;5.53;100.00
22649;BME280;11491;41.942;24.220;2023-05-12T01:02:19;90162.34;;;5.55;100.00
22649;BME280;11491;41.942;24.220;2023-05-12T01:04:46;90162.81;;;5.57;100.00
22649;BME280;11491;41.942;24.220;2023-05-12T01:07:17;90168.47;;;5.64;100.00
22649;BME280;11491;41.942;24.220;2023-05-12T01:09:44;90170.78;;;5.57;100.00
22649;BME280;11491;41.942;24.220;2023-05-12T01:12:11;90168.38;;;5.47;100.00
22649;BME280;11491;41.942;24.220;2023-05-12T01:14:42;90168.53;;;5.50;100.00
22649;BME280;11491;41.942;24.220;2023-05-12T01:17:11;90166.88;;;5.63;100.00
22649;BME280;11491;41.942;24.220;2023-05-12T01:19:42;90170.63;;;5.62;100.00
22649;BME280;11491;41.942;24.220;2023-05-12T01:22:11;90170.16;;;5.60;100.00
22649;BME280;11491;41.942;24.220;2023-05-12T01:24:44;90169.06;;;5.61;100.00
22649;BME280;11491;41.942;24.220;2023-05-12T01:27:15;90162.19;;;5.60;100.00
22649;BME280;11491;41.942;24.220;2023-05-12T01:29:42;90159.69;;;5.55;100.00
22649;BME280;11491;41.942;24.220;2023-05-12T01:32:10;90149.41;;;5.62;100.00
22649;BME280;11491;41.942;24.220;2023-05-12T01:34:37;90157.66;;;5.60;100.00
22649;BME280;11491;41.942;24.220;2023-05-12T01:37:06;90153.75;;;5.58;100.00
22649;BME280;11491;41.942;24.220;2023-05-12T01:39:33;90159.81;;;5.50;100.00
22649;BME280;11491;41.942;24.220;2023-05-12T01:42:00;90155.94;;;5.56;100.00
22649;BME280;11491;41.942;24.220;2023-05-12T01:44:28;90152.19;;;5.57;100.00
22649;BME280;11491;41.942;24.220;2023-05-12T01:46:55;90155.00;;;5.52;100.00
22649;BME280;11491;41.942;24.220;2023-05-12T01:49:22;90133.44;;;5.45;100.00
22649;BME280;11491;41.942;24.220;2023-05-12T01:51:49;90144.84;;;5.54;100.00
22649;BME280;11491;41.942;24.220;2023-05-12T01:54:16;90146.91;;;5.57;100.00
22649;BME280;11491;41.942;24.220;2023-05-12T01:56:42;90142.53;;;5.61;100.00
22649;BME280;11491;41.942;24.220;2023-05-12T01:59:09;90139.13;;;5.69;100.00
22649;BME280;11491;41.942;24.220;2023-05-12T02:01:37;90135.38;;;5.70;100.00
22649;BME280;11491;41.942;24.220;2023-05-12T02:04:04;90148.38;;;5.80;100.00
22649;BME280;11491;41.942;24.220;2023-05-12T02:06:33;90140.13;;;5.91;100.00
22649;BME280;11491;41.942;24.220;2023-05-12T02:08:59;90142.19;;;5.94;100.00
22649;BME280;11491;41.942;24.220;2023-05-12T02:11:26;90154.47;;;5.90;100.00
22649;BME280;11491;41.942;24.220;2023-05-12T02:13:53;90152.50;;;5.95;100.00
22649;BME280;11491;41.942;24.220;2023-05-12T02:16:20;90142.66;;;5.96;100.00
22649;BME280;11491;41.942;24.220;2023-05-12T02:18:48;90149.88;;;6.04;100.00
22649;BME280;11491;41.942;24.220;2023-05-12T02:21:15;90153.94;;;6.10;100.00
22649;BME280;11491;41.942;24.220;2023-05-12T02:23:42;90159.25;;;6.10;99.80
22649;BME280;11491;41.942;24.220;2023-05-12T02:26:09;90154.06;;;6.05;99.98
22649;BME280;11491;41.942;24.220;2023-05-12T02:28:35;90148.63;;;6.10;100.00
22649;BME280;11491;41.942;24.220;2023-05-12T02:31:02;90152.06;;;6.19;99.55
22649;BME280;11491;41.942;24.220;2023-05-12T02:33:29;90150.22;;;6.29;98.98
22649;BME280;11491;41.942;24.220;2023-05-12T02:35:57;90151.78;;;6.30;98.49
22649;BME280;11491;41.942;24.220;2023-05-12T02:38:24;90147.41;;;6.34;98.11
22649;BME280;11491;41.942;24.220;2023-05-12T02:40:50;90148.34;;;6.38;97.94
22649;BME280;11491;41.942;24.220;2023-05-12T02:43:17;90152.09;;;6.37;97.89
22649;BME280;11491;41.942;24.220;2023-05-12T02:45:44;90148.03;;;6.39;97.95
22649;BME280;11491;41.942;24.220;2023-05-12T02:48:12;90147.09;;;6.27;97.81
22649;BME280;11491;41.942;24.220;2023-05-12T02:50:39;90145.81;;;6.15;97.96
22649;BME280;11491;41.942;24.220;2023-05-12T02:53:07;90161.28;;;6.31;98.15
22649;BME280;11491;41.942;24.220;2023-05-12T02:55:34;90160.84;;;6.29;98.45
22649;BME280;11491;41.942;24.220;2023-05-12T02:58:01;90159.59;;;6.35;97.78
22649;BME280;11491;41.942;24.220;2023-05-12T03:00:27;90161.28;;;6.31;97.17
22649;BME280;11491;41.942;24.220;2023-05-12T03:02:54;90154.59;;;6.24;97.90
22649;BME280;11491;41.942;24.220;2023-05-12T03:05:21;90163.81;;;6.27;97.87
22649;BME280;11491;41.942;24.220;2023-05-12T03:07:47;90162.25;;;6.26;97.80
22649;BME280;11491;41.942;24.220;2023-05-12T03:10:16;90157.72;;;6.27;97.42
22649;BME280;11491;41.942;24.220;2023-05-12T03:12:43;90156.47;;;6.33;96.52
22649;BME280;11491;41.942;24.220;2023-05-12T03:15:10;90164.44;;;6.41;94.54
22649;BME280;11491;41.942;24.220;2023-05-12T03:17:37;90172.38;;;6.33;95.01
22649;BME280;11491;41.942;24.220;2023-05-12T03:20:05;90178.03;;;6.40;94.98
22649;BME280;11491;41.942;24.220;2023-05-12T03:22:32;90173.97;;;6.34;95.73
22649;BME280;11491;41.942;24.220;2023-05-12T03:24:59;90170.34;;;6.21;96.97
22649;BME280;11491;41.942;24.220;2023-05-12T03:27:29;90176.63;;;6.34;96.14
22649;BME280;11491;41.942;24.220;2023-05-12T03:29:56;90180.53;;;6.36;95.02
22649;BME280;11491;41.942;24.220;2023-05-12T03:32:24;90178.66;;;6.37;95.15
22649;BME280;11491;41.942;24.220;2023-05-12T03:34:51;90183.00;;;6.33;95.80
22649;BME280;11491;41.942;24.220;2023-05-12T03:37:18;90188.94;;;6.30;96.74
22649;BME280;11491;41.942;24.220;2023-05-12T03:39:45;90185.66;;;6.24;97.56
22649;BME280;11491;41.942;24.220;2023-05-12T03:42:12;90180.50;;;6.28;98.44
22649;BME280;11491;41.942;24.220;2023-05-12T03:44:40;90171.47;;;6.29;98.96
22649;BME280;11491;41.942;24.220;2023-05-12T03:47:08;90184.59;;;6.34;98.61
22649;BME280;11491;41.942;24.220;2023-05-12T03:49:34;90182.88;;;6.29;97.75
22649;BME280;11491;41.942;24.220;2023-05-12T03:52:01;90188.91;;;6.12;98.05
22649;BME280;11491;41.942;24.220;2023-05-12T03:54:28;90179.84;;;6.13;98.15
22649;BME280;11491;41.942;24.220;2023-05-12T03:56:55;90183.28;;;6.05;99.05
22649;BME280;11491;41.942;24.220;2023-05-12T03:59:21;90187.88;;;5.91;100.00
22649;BME280;11491;41.942;24.220;2023-05-12T04:01:50;90188.09;;;6.03;100.00
22649;BME280;11491;41.942;24.220;2023-05-12T04:04:17;90182.94;;;5.98;100.00
22649;BME280;11491;41.942;24.220;2023-05-12T04:06:44;90186.41;;;6.07;100.00
22649;BME280;11491;41.942;24.220;2023-05-12T04:09:10;90186.41;;;6.07;100.00
22649;BME280;11491;41.942;24.220;2023-05-12T04:11:37;90176.41;;;6.04;99.32
22649;BME280;11491;41.942;24.220;2023-05-12T04:14:04;90198.28;;;6.18;99.21
22649;BME280;11491;41.942;24.220;2023-05-12T04:16:31;90194.38;;;6.16;99.20
22649;BME280;11491;41.942;24.220;2023-05-12T04:18:59;90197.53;;;6.27;99.68
22649;BME280;11491;41.942;24.220;2023-05-12T04:21:25;90185.63;;;6.15;99.18
22649;BME280;11491;41.942;24.220;2023-05-12T04:23:52;90193.31;;;6.25;98.82
22649;BME280;11491;41.942;24.220;2023-05-12T04:26:19;90198.31;;;6.36;98.70
22649;BME280;11491;41.942;24.220;2023-05-12T04:28:46;90196.13;;;6.38;97.38
22649;BME280;11491;41.942;24.220;2023-05-12T04:31:13;90201.31;;;6.34;98.08
22649;BME280;11491;41.942;24.220;2023-05-12T04:33:39;90196.78;;;6.35;98.38
22649;BME280;11491;41.942;24.220;2023-05-12T04:36:08;90195.22;;;6.34;98.28
22649;BME280;11491;41.942;24.220;2023-05-12T04:38:35;90200.81;;;6.41;98.21
22649;BME280;11491;41.942;24.220;2023-05-12T04:41:01;90195.06;;;6.47;98.40
22649;BME280;11491;41.942;24.220;2023-05-12T04:43:28;90193.97;;;6.57;97.67
22649;BME280;11491;41.942;24.220;2023-05-12T04:45:55;90190.84;;;6.55;97.54
22649;BME280;11491;41.942;24.220;2023-05-12T04:48:22;90186.94;;;6.53;97.30
22649;BME280;11491;41.942;24.220;2023-05-12T04:50:48;90186.47;;;6.59;97.15
22649;BME280;11491;41.942;24.220;2023-05-12T04:53:17;90186.63;;;6.63;97.18
22649;BME280;11491;41.942;24.220;2023-05-12T04:55:43;90188.34;;;6.67;96.98
22649;BME280;11491;41.942;24.220;2023-05-12T04:58:11;90182.59;;;6.74;96.79
22649;BME280;11491;41.942;24.220;2023-05-12T05:00:38;90189.00;;;6.82;96.82
22649;BME280;11491;41.942;24.220;2023-05-12T05:03:05;90185.72;;;6.76;96.58
22649;BME280;11491;41.942;24.220;2023-05-12T05:05:32;90190.09;;;6.81;96.33
22649;BME280;11491;41.942;24.220;2023-05-12T05:07:59;90156.00;;;6.57;96.19
22649;BME280;11491;41.942;24.220;2023-05-12T05:10:27;90186.50;;;6.77;96.13
22649;BME280;11491;41.942;24.220;2023-05-12T05:12:54;90182.13;;;6.81;95.98
22649;BME280;11491;41.942;24.220;2023-05-12T05:15:20;90182.09;;;6.72;95.67
22649;BME280;11491;41.942;24.220;2023-05-12T05:17:47;90179.75;;;6.71;96.02
22649;BME280;11491;41.942;24.220;2023-05-12T05:20:14;90181.19;;;6.77;96.66
22649;BME280;11491;41.942;24.220;2023-05-12T05:22:41;90186.34;;;6.82;96.00
22649;BME280;11491;41.942;24.220;2023-05-12T05:25:08;90184.47;;;6.91;95.28
22649;BME280;11491;41.942;24.220;2023-05-12T05:27:37;90183.69;;;6.82;94.77
22649;BME280;11491;41.942;24.220;2023-05-12T05:30:05;90197.44;;;6.84;93.00
22649;BME280;11491;41.942;24.220;2023-05-12T05:32:33;90193.53;;;6.81;94.67
22649;BME280;11491;41.942;24.220;2023-05-12T05:35:00;90200.56;;;6.86;94.29
22649;BME280;11491;41.942;24.220;2023-05-12T05:37:27;90200.84;;;6.76;92.88
22649;BME280;11491;41.942;24.220;2023-05-12T05:39:54;90208.66;;;6.46;94.35
22649;BME280;11491;41.942;24.220;2023-05-12T05:42:20;90195.81;;;6.31;96.01
22649;BME280;11491;41.942;24.220;2023-05-12T05:44:48;90211.16;;;6.34;96.54
22649;BME280;11491;41.942;24.220;2023-05-12T05:47:15;90213.31;;;6.32;95.76
22649;BME280;11491;41.942;24.220;2023-05-12T05:49:42;90217.19;;;6.25;96.00
22649;BME280;11491;41.942;24.220;2023-05-12T05:52:09;90213.56;;;6.04;97.21
22649;BME280;11491;41.942;24.220;2023-05-12T05:54:36;90216.19;;;5.95;98.33
22649;BME280;11491;41.942;24.220;2023-05-12T05:57:03;90215.66;;;5.85;98.76
22649;BME280;11491;41.942;24.220;2023-05-12T05:59:29;90210.63;;;5.74;100.00
22649;BME280;11491;41.942;24.220;2023-05-12T06:01:57;90213.69;;;5.59;100.00
22649;BME280;11491;41.942;24.220;2023-05-12T06:04:24;90217.25;;;5.54;100.00
22649;BME280;11491;41.942;24.220;2023-05-12T06:06:51;90218.66;;;5.52;100.00
22649;BME280;11491;41.942;24.220;2023-05-12T06:09:18;90216.03;;;5.60;100.00
22649;BME280;11491;41.942;24.220;2023-05-12T06:11:44;90222.97;;;5.48;100.00
22649;BME280;11491;41.942;24.220;2023-05-12T06:14:11;90211.34;;;5.57;100.00
22649;BME280;11491;41.942;24.220;2023-05-12T06:16:38;90216.53;;;5.71;100.00
22649;BME280;11491;41.942;24.220;2023-05-12T06:19:06;90226.41;;;5.79;100.00
22649;BME280;11491;41.942;24.220;2023-05-12T06:21:33;90221.44;;;5.87;100.00
22649;BME280;11491;41.942;24.220;2023-05-12T06:24:00;90227.63;;;5.73;100.00
22649;BME280;11491;41.942;24.220;2023-05-12T06:26:27;90223.63;;;5.85;100.00
22649;BME280;11491;41.942;24.220;2023-05-12T06:28:54;90226.28;;;5.85;100.00
22649;BME280;11491;41.942;24.220;2023-05-12T06:31:20;90223.75;;;5.79;100.00
22649;BME280;11491;41.942;24.220;2023-05-12T06:33:48;90227.63;;;5.73;100.00
22649;BME280;11491;41.942;24.220;2023-05-12T06:36:16;90235.09;;;5.71;100.00
22649;BME280;11491;41.942;24.220;2023-05-12T06:38:43;90237.16;;;5.74;100.00
22649;BME280;11491;41.942;24.220;2023-05-12T06:41:09;90238.09;;;5.78;100.00
22649;BME280;11491;41.942;24.220;2023-05-12T06:43:36;90240.97;;;5.91;100.00
22649;BME280;11491;41.942;24.220;2023-05-12T06:46:03;90237.53;;;5.90;100.00
22649;BME280;11491;41.942;24.220;2023-05-12T06:48:31;90232.50;;;5.89;100.00
22649;BME280;11491;41.942;24.220;2023-05-12T06:50:57;90249.16;;;6.03;100.00
22649;BME280;11491;41.942;24.220;2023-05-12T06:53:26;90249.00;;;6.08;100.00
22649;BME280;11491;41.942;24.220;2023-05-12T06:55:52;90240.72;;;6.01;100.00
22649;BME280;11491;41.942;24.220;2023-05-12T06:58:19;90244.81;;;6.07;100.00
22649;BME280;11491;41.942;24.220;2023-05-12T07:00:46;90239.25;;;6.26;100.00
22649;BME280;11491;41.942;24.220;2023-05-12T07:03:13;90244.41;;;6.31;100.00
22649;BME280;11491;41.942;24.220;2023-05-12T07:05:40;90239.88;;;6.32;100.00
22649;BME280;11491;41.942;24.220;2023-05-12T07:08:07;90233.03;;;6.39;100.00
22649;BME280;11491;41.942;24.220;2023-05-12T07:10:35;90242.44;;;6.54;100.00
22649;BME280;11491;41.942;24.220;2023-05-12T07:25:24;90240.59;;;7.16;96.16
22649;BME280;11491;41.942;24.220;2023-05-12T07:27:52;90247.31;;;7.13;95.66
22649;BME280;11491;41.942;24.220;2023-05-12T07:30:19;90245.91;;;6.98;95.36
22649;BME280;11491;41.942;24.220;2023-05-12T07:32:46;90240.44;;;6.86;96.58
22649;BME280;11491;41.942;24.220;2023-05-12T07:35:13;90242.59;;;6.93;96.57
22649;BME280;11491;41.942;24.220;2023-05-12T07:37:40;90249.97;;;7.04;96.75
22649;BME280;11491;41.942;24.220;2023-05-12T07:40:07;90244.34;;;6.97;95.89
22649;BME280;11491;41.942;24.220;2023-05-12T07:42:35;90246.50;;;6.78;96.69
22649;BME280;11491;41.942;24.220;2023-05-12T07:45:04;90252.16;;;6.85;97.34
22649;BME280;11491;41.942;24.220;2023-05-12T07:47:31;90256.66;;;6.67;97.59
22649;BME280;11491;41.942;24.220;2023-05-12T07:49:58;90256.81;;;6.71;98.98
22649;BME280;11491;41.942;24.220;2023-05-12T07:52:25;90259.66;;;6.83;99.16
22649;BME280;11491;41.942;24.220;2023-05-12T07:54:52;90266.38;;;6.89;98.23
22649;BME280;11491;41.942;24.220;2023-05-12T07:57:18;90263.72;;;6.89;97.87
22649;BME280;11491;41.942;24.220;2023-05-12T07:59:47;90261.06;;;6.98;97.76
22649;BME280;11491;41.942;24.220;2023-05-12T08:02:13;90259.66;;;7.00;97.83
22649;BME280;11491;41.942;24.220;2023-05-12T08:04:41;90259.97;;;7.07;97.11
22649;BME280;11491;41.942;24.220;2023-05-12T08:07:08;90252.00;;;7.16;96.17
22649;BME280;11491;41.942;24.220;2023-05-12T08:09:35;90268.59;;;7.30;96.87
22649;BME280;11491;41.942;24.220;2023-05-12T08:12:01;90270.44;;;7.39;97.57
22649;BME280;11491;41.942;24.220;2023-05-12T08:14:28;90266.34;;;7.59;96.45
22649;BME280;11491;41.942;24.220;2023-05-12T08:16:56;90264.78;;;7.66;95.53
22649;BME280;11491;41.942;24.220;2023-05-12T08:19:23;90263.19;;;7.74;94.99
22649;BME280;11491;41.942;24.220;2023-05-12T08:21:49;90272.69;;;7.92;94.20
22649;BME280;11491;41.942;24.220;2023-05-12T08:24:16;90271.41;;;7.98;92.92
22649;BME280;11491;41.942;24.220;2023-05-12T08:26:43;90269.69;;;8.03;93.67
22649;BME280;11491;41.942;24.220;2023-05-12T08:29:10;90262.63;;;8.07;93.24
22649;BME280;11491;41.942;24.220;2023-05-12T08:31:37;90265.09;;;8.12;93.43
22649;BME280;11491;41.942;24.220;2023-05-12T08:34:05;90254.44;;;8.12;92.09
22649;BME280;11491;41.942;24.220;2023-05-12T08:36:32;90262.78;;;8.02;92.87
22649;BME280;11491;41.942;24.220;2023-05-12T08:38:59;90260.59;;;8.04;94.39
22649;BME280;11491;41.942;24.220;2023-05-12T08:41:35;90265.25;;;8.15;93.05
22649;BME280;11491;41.942;24.220;2023-05-12T08:44:03;90261.66;;;8.20;91.02
22649;BME280;11491;41.942;24.220;2023-05-12T08:46:31;90260.06;;;8.19;90.71
22649;BME280;11491;41.942;24.220;2023-05-12T08:48:58;90258.88;;;8.08;91.52
22649;BME280;11491;41.942;24.220;2023-05-12T08:51:28;90267.16;;;8.06;91.88
22649;BME280;11491;41.942;24.220;2023-05-12T08:53:57;90259.84;;;7.94;94.31
22649;BME280;11491;41.942;24.220;2023-05-12T08:56:24;90264.41;;;7.85;93.01
22649;BME280;11491;41.942;24.220;2023-05-12T08:58:52;90264.09;;;7.87;94.00
22649;BME280;11491;41.942;24.220;2023-05-12T09:01:20;90263.13;;;8.00;92.40
22649;BME280;11491;41.942;24.220;2023-05-12T09:03:50;90232.91;;;7.87;93.31
22649;BME280;11491;41.942;24.220;2023-05-12T09:06:17;90254.81;;;8.02;93.20
22649;BME280;11491;41.942;24.220;2023-05-12T09:08:45;90255.78;;;7.88;93.74
22649;BME280;11491;41.942;24.220;2023-05-12T09:11:13;90260.94;;;7.85;94.26
22649;BME280;11491;41.942;24.220;2023-05-12T09:13:48;90257.03;;;7.82;94.01
22649;BME280;11491;41.942;24.220;2023-05-12T09:16:20;90273.81;;;7.83;95.22
22649;BME280;11491;41.942;24.220;2023-05-12T09:18:50;90267.41;;;7.75;95.45
22649;BME280;11491;41.942;24.220;2023-05-12T09:21:17;90261.41;;;7.95;95.88
22649;BME280;11491;41.942;24.220;2023-05-12T09:23:53;90246.06;;;7.92;95.08
22649;BME280;11491;41.942;24.220;2023-05-12T09:26:21;90258.97;;;7.73;95.09
22649;BME280;11491;41.942;24.220;2023-05-12T09:28:49;90260.22;;;7.67;96.20
22649;BME280;11491;41.942;24.220;2023-05-12T09:31:16;90237.41;;;7.48;96.80
22649;BME280;11491;41.942;24.220;2023-05-12T09:33:43;90263.72;;;7.41;97.26
22649;BME280;11491;41.942;24.220;2023-05-12T09:36:10;90266.22;;;7.29;99.08
22649;BME280;11491;41.942;24.220;2023-05-12T09:38:38;90270.00;;;7.10;97.30
22649;BME280;11491;41.942;24.220;2023-05-12T09:41:06;90263.41;;;7.17;99.31
22649;BME280;11491;41.942;24.220;2023-05-12T09:43:34;90267.47;;;7.23;98.74
22649;BME280;11491;41.942;24.220;2023-05-12T09:46:04;90262.16;;;7.23;97.88
22649;BME280;11491;41.942;24.220;2023-05-12T09:48:31;90264.38;;;7.21;97.46
22649;BME280;11491;41.942;24.220;2023-05-12T09:50:58;90260.59;;;6.87;98.34
22649;BME280;11491;41.942;24.220;2023-05-12T09:53:25;90265.91;;;6.87;99.87
22649;BME280;11491;41.942;24.220;2023-05-12T09:55:51;90267.78;;;6.86;100.00
22649;BME280;11491;41.942;24.220;2023-05-12T09:58:20;90269.53;;;6.91;98.92
22649;BME280;11491;41.942;24.220;2023-05-12T10:00:51;90269.97;;;6.93;97.42
22649;BME280;11491;41.942;24.220;2023-05-12T10:03:20;90268.41;;;6.92;98.19
22649;BME280;11491;41.942;24.220;2023-05-12T10:05:52;90273.75;;;7.01;98.91
22649;BME280;11491;41.942;24.220;2023-05-12T10:08:37;90270.59;;;7.07;96.74
22649;BME280;11491;41.942;24.220;2023-05-12T10:11:04;90268.59;;;7.13;97.37
22649;BME280;11491;41.942;24.220;2023-05-12T10:13:32;90268.56;;;7.22;96.94
22649;BME280;11491;41.942;24.220;2023-05-12T10:15:59;90261.72;;;7.21;96.10
22649;BME280;11491;41.942;24.220;2023-05-12T10:18:26;90265.59;;;7.32;96.64
22649;BME280;11491;41.942;24.220;2023-05-12T10:20:55;90271.22;;;7.39;95.09
22649;BME280;11491;41.942;24.220;2023-05-12T10:23:24;90273.72;;;7.44;94.82
22649;BME280;11491;41.942;24.220;2023-05-12T10:25:52;90269.84;;;7.33;95.37
22649;BME280;11491;41.942;24.220;2023-05-12T10:28:22;90272.03;;;7.31;96.83
22649;BME280;11491;41.942;24.220;2023-05-12T10:30:52;90270.91;;;7.49;96.19
22649;BME280;11491;41.942;24.220;2023-05-12T10:33:19;90274.97;;;7.55;95.10
22649;BME280;11491;41.942;24.220;2023-05-12T10:35:46;90268.69;;;7.60;93.76
22649;BME280;11491;41.942;24.220;2023-05-12T10:38:14;90274.63;;;7.66;93.51
22649;BME280;11491;41.942;24.220;2023-05-12T10:40:50;90272.16;;;7.61;94.10
22649;BME280;11491;41.942;24.220;2023-05-12T10:43:20;90270.41;;;7.65;93.74
22649;BME280;11491;41.942;24.220;2023-05-12T10:46:06;90265.88;;;7.57;93.82
22649;BME280;11491;41.942;24.220;2023-05-12T10:48:33;90273.69;;;7.62;93.58
22649;BME280;11491;41.942;24.220;2023-05-12T10:51:06;90256.31;;;7.64;95.08
22649;BME280;11491;41.942;24.220;2023-05-12T10:53:33;90270.81;;;7.84;94.25
22649;BME280;11491;41.942;24.220;2023-05-12T10:56:02;90266.75;;;7.95;93.97
22649;BME280;11491;41.942;24.220;2023-05-12T10:58:29;90275.97;;;7.98;92.70
22649;BME280;11491;41.942;24.220;2023-05-12T11:01:03;90274.56;;;8.01;91.07
22649;BME280;11491;41.942;24.220;2023-05-12T11:03:32;90278.28;;;7.99;91.07
22649;BME280;11491;41.942;24.220;2023-05-12T11:06:02;90279.22;;;8.04;91.07
22649;BME280;11491;41.942;24.220;2023-05-12T11:08:29;90280.47;;;8.15;90.98
22649;BME280;11491;41.942;24.220;2023-05-12T11:10:59;90283.84;;;8.24;90.51
22649;BME280;11491;41.942;24.220;2023-05-12T11:13:27;90277.69;;;8.03;89.91
22649;BME280;11491;41.942;24.220;2023-05-12T11:15:55;90273.44;;;8.02;90.88
22649;BME280;11491;41.942;24.220;2023-05-12T11:18:22;90283.56;;;8.17;90.49
22649;BME280;11491;41.942;24.220;2023-05-12T11:20:50;90275.94;;;8.07;90.64
22649;BME280;11491;41.942;24.220;2023-05-12T11:23:24;90273.44;;;8.10;90.21
22649;BME280;11491;41.942;24.220;2023-05-12T11:25:54;90291.72;;;8.12;90.43
22649;BME280;11491;41.942;24.220;2023-05-12T11:28:21;90281.72;;;8.09;89.74
22649;BME280;11491;41.942;24.220;2023-05-12T11:30:49;90285.91;;;8.18;90.83
22649;BME280;11491;41.942;24.220;2023-05-12T11:33:19;90283.22;;;8.27;91.09
22649;BME280;11491;41.942;24.220;2023-05-12T11:35:46;90286.63;;;8.36;90.25
22649;BME280;11491;41.942;24.220;2023-05-12T11:38:15;90283.97;;;8.36;89.57
22649;BME280;11491;41.942;24.220;2023-05-12T11:40:43;90276.63;;;8.33;89.78
22649;BME280;11491;41.942;24.220;2023-05-12T11:43:10;90282.09;;;8.46;88.69
22649;BME280;11491;41.942;24.220;2023-05-12T11:45:37;90282.53;;;8.48;89.60
22649;BME280;11491;41.942;24.220;2023-05-12T11:48:05;90281.72;;;8.56;89.34
22649;BME280;11491;41.942;24.220;2023-05-12T11:50:33;90270.88;;;8.61;87.89
22649;BME280;11491;41.942;24.220;2023-05-12T11:53:02;90282.19;;;8.58;87.75
22649;BME280;11491;41.942;24.220;2023-05-12T11:55:30;90278.94;;;8.44;88.43
22649;BME280;11491;41.942;24.220;2023-05-12T11:58:00;90271.38;;;8.54;88.86
22649;BME280;11491;41.942;24.220;2023-05-12T12:00:29;90275.91;;;8.54;88.69
22649;BME280;11491;41.942;24.220;2023-05-12T12:03:10;90278.31;;;8.47;88.48
22649;BME280;11491;41.942;24.220;2023-05-12T12:05:37;90277.56;;;8.37;89.90
22649;BME280;11491;41.942;24.220;2023-05-12T12:08:06;90280.34;;;8.50;90.15
22649;BME280;11491;41.942;24.220;2023-05-12T12:10:35;90279.97;;;8.60;88.95
22649;BME280;11491;41.942;24.220;2023-05-12T12:13:02;90271.16;;;8.68;87.63
22649;BME280;11491;41.942;24.220;2023-05-12T12:15:30;90284.00;;;8.66;88.69
22649;BME280;11491;41.942;24.220;2023-05-12T12:17:57;90278.78;;;8.78;89.17
22649;BME280;11491;41.942;24.220;2023-05-12T12:20:24;90274.63;;;8.90;87.13
22649;BME280;11491;41.942;24.220;2023-05-12T12:22:51;90271.69;;;8.82;86.95
22649;BME280;11491;41.942;24.220;2023-05-12T12:25:19;90280.88;;;8.64;87.58
22649;BME280;11491;41.942;24.220;2023-05-12T12:27:47;90277.13;;;8.65;87.25
22649;BME280;11491;41.942;24.220;2023-05-12T12:30:14;90283.09;;;8.62;86.94
22649;BME280;11491;41.942;24.220;2023-05-12T12:32:43;90282.84;;;8.55;88.06
22649;BME280;11491;41.942;24.220;2023-05-12T12:35:10;90281.72;;;8.56;88.45
22649;BME280;11491;41.942;24.220;2023-05-12T12:37:37;90281.53;;;8.61;88.55
22649;BME280;11491;41.942;24.220;2023-05-12T12:40:05;90290.00;;;8.63;88.08
22649;BME280;11491;41.942;24.220;2023-05-12T12:42:34;90288.75;;;8.60;87.52
22649;BME280;11491;41.942;24.220;2023-05-12T12:45:03;90287.03;;;8.56;87.31
22649;BME280;11491;41.942;24.220;2023-05-12T12:47:30;90292.38;;;8.56;88.34
22649;BME280;11491;41.942;24.220;2023-05-12T12:49:57;90295.44;;;8.67;88.10
22649;BME280;11491;41.942;24.220;2023-05-12T12:52:24;90289.06;;;8.59;84.52
22649;BME280;11491;41.942;24.220;2023-05-12T12:54:51;90291.25;;;8.57;84.64
22649;BME280;11491;41.942;24.220;2023-05-12T12:57:18;90288.34;;;8.50;85.75
22649;BME280;11491;41.942;24.220;2023-05-12T12:59:46;90289.59;;;8.44;86.60
22649;BME280;11491;41.942;24.220;2023-05-12T13:02:14;90287.22;;;8.51;87.51
22649;BME280;11491;41.942;24.220;2023-05-12T13:04:41;90285.94;;;8.57;86.20
22649;BME280;11491;41.942;24.220;2023-05-12T13:07:08;90284.09;;;8.49;87.14
22649;BME280;11491;41.942;24.220;2023-05-12T13:09:34;90277.50;;;8.55;86.75
22649;BME280;11491;41.942;24.220;2023-05-12T13:12:01;90283.22;;;8.66;84.58